Kettering, Ohio
Current Conditions -  °F | °C
As of 12:53 AM on Saturday 25 Oct 2014 (Local Time) from KMGY Reporting Station
Clear Clear  
Wind Chill: 51°   Ceiling: Unl
Heat Index: 51°   Visibility: 10mi
Dew Point: 40°   Wind: 3mph
Humidity: 66%   Direction: 180°S
Pressure: 30.03"   Gusts: NA
Location:  39.7°N, 84.16°W
Report Text: KMGY 250453Z AUTO 18003KT 10SM CLR 11/04 A3003 RMK AO2 SLP168 T01060044 401780044
Loading
Personal Weather Stations






























Interactive Weather Map New forecast layout! Learn more

10-Day Weather Forecast

Advertisements
Track Severe Weather on mobile